Terminal Aerodrome Forecast
Issued by NWS

Home | Current Version | Previous Version | Text Only | Print | Product List | Glossary On
Versions: 1 2 3 4 5 6 7 8 9 10 11 12 13 14 15 16 17 18 19 20 21 22 23 24
000
FTUS41 KPHI 010526
TAFPNE
TAF
KPNE 010526Z 0106/0206 07008KT 3SM BR OVC003
     FM011300 11004KT 5SM BR OVC006
     FM011500 18008KT P6SM BKN012
     FM011600 22010KT P6SM BKN025
     FM011700 22012G20KT P6SM SCT045
     FM012300 19012G20KT P6SM SCT045
     FM020400 21010G18KT P6SM SHRA OVC045=

USA.gov is the U.S. government's official web portal to all federal, state and local government web resources and services.